sensor_id;sensor_type;location;lat;lon;timestamp;P1;durP1;ratioP1;P2;durP2;ratioP2
74626;SDS011;63132;52.268;5.192;2022-11-15T00:01:26;59.43;;;34.63;;
74626;SDS011;63132;52.268;5.192;2022-11-15T00:03:52;60.72;;;35.75;;
74626;SDS011;63132;52.268;5.192;2022-11-15T00:06:17;61.88;;;35.40;;
74626;SDS011;63132;52.268;5.192;2022-11-15T00:08:43;61.87;;;34.17;;
74626;SDS011;63132;52.268;5.192;2022-11-15T00:11:10;61.43;;;34.20;;
74626;SDS011;63132;52.268;5.192;2022-11-15T00:13:36;54.97;;;33.17;;
74626;SDS011;63132;52.268;5.192;2022-11-15T00:16:02;61.13;;;35.10;;
74626;SDS011;63132;52.268;5.192;2022-11-15T00:18:28;60.50;;;34.07;;
74626;SDS011;63132;52.268;5.192;2022-11-15T00:20:54;59.67;;;32.28;;
74626;SDS011;63132;52.268;5.192;2022-11-15T00:23:19;61.78;;;33.83;;
74626;SDS011;63132;52.268;5.192;2022-11-15T00:25:45;57.77;;;32.57;;
74626;SDS011;63132;52.268;5.192;2022-11-15T00:28:10;61.17;;;33.30;;
74626;SDS011;63132;52.268;5.192;2022-11-15T00:30:35;57.53;;;33.60;;
74626;SDS011;63132;52.268;5.192;2022-11-15T00:33:04;64.20;;;34.17;;
74626;SDS011;63132;52.268;5.192;2022-11-15T00:35:33;64.10;;;34.92;;
74626;SDS011;63132;52.268;5.192;2022-11-15T00:38:00;62.72;;;35.03;;
74626;SDS011;63132;52.268;5.192;2022-11-15T00:40:26;67.33;;;35.87;;
74626;SDS011;63132;52.268;5.192;2022-11-15T00:42:52;67.03;;;34.67;;
74626;SDS011;63132;52.268;5.192;2022-11-15T00:45:17;70.10;;;35.40;;
74626;SDS011;63132;52.268;5.192;2022-11-15T00:47:45;65.68;;;35.30;;
74626;SDS011;63132;52.268;5.192;2022-11-15T00:50:11;67.20;;;33.40;;
74626;SDS011;63132;52.268;5.192;2022-11-15T00:52:37;63.30;;;32.95;;
74626;SDS011;63132;52.268;5.192;2022-11-15T00:55:02;71.60;;;35.63;;
74626;SDS011;63132;52.268;5.192;2022-11-15T00:57:28;73.90;;;37.15;;
74626;SDS011;63132;52.268;5.192;2022-11-15T00:59:53;71.90;;;35.33;;
74626;SDS011;63132;52.268;5.192;2022-11-15T01:02:19;74.33;;;36.27;;
74626;SDS011;63132;52.268;5.192;2022-11-15T01:04:44;85.07;;;38.40;;
74626;SDS011;63132;52.268;5.192;2022-11-15T01:07:10;84.97;;;37.13;;
74626;SDS011;63132;52.268;5.192;2022-11-15T01:09:35;77.60;;;37.23;;
74626;SDS011;63132;52.268;5.192;2022-11-15T01:12:00;85.00;;;38.65;;
74626;SDS011;63132;52.268;5.192;2022-11-15T01:14:26;80.90;;;37.67;;
74626;SDS011;63132;52.268;5.192;2022-11-15T01:16:51;86.90;;;40.33;;
74626;SDS011;63132;52.268;5.192;2022-11-15T01:19:17;83.33;;;38.63;;
74626;SDS011;63132;52.268;5.192;2022-11-15T01:21:42;86.00;;;39.15;;
74626;SDS011;63132;52.268;5.192;2022-11-15T01:24:08;78.87;;;36.63;;
74626;SDS011;63132;52.268;5.192;2022-11-15T01:26:37;83.32;;;38.55;;
74626;SDS011;63132;52.268;5.192;2022-11-15T01:29:02;83.57;;;39.10;;
74626;SDS011;63132;52.268;5.192;2022-11-15T01:31:28;83.20;;;39.07;;
74626;SDS011;63132;52.268;5.192;2022-11-15T01:33:53;80.37;;;37.60;;
74626;SDS011;63132;52.268;5.192;2022-11-15T01:36:20;83.83;;;38.10;;
74626;SDS011;63132;52.268;5.192;2022-11-15T01:38:47;77.80;;;38.00;;
74626;SDS011;63132;52.268;5.192;2022-11-15T01:41:20;81.47;;;37.78;;
74626;SDS011;63132;52.268;5.192;2022-11-15T01:43:54;88.65;;;38.67;;
74626;SDS011;63132;52.268;5.192;2022-11-15T01:48:46;77.17;;;37.33;;
74626;SDS011;63132;52.268;5.192;2022-11-15T01:51:15;79.15;;;38.08;;
74626;SDS011;63132;52.268;5.192;2022-11-15T01:53:45;90.90;;;40.58;;
74626;SDS011;63132;52.268;5.192;2022-11-15T01:56:16;86.38;;;39.83;;
74626;SDS011;63132;52.268;5.192;2022-11-15T01:58:45;90.53;;;41.42;;
74626;SDS011;63132;52.268;5.192;2022-11-15T02:01:11;87.03;;;39.70;;
74626;SDS011;63132;52.268;5.192;2022-11-15T02:06:19;88.47;;;41.70;;
74626;SDS011;63132;52.268;5.192;2022-11-15T02:08:46;83.25;;;39.92;;
74626;SDS011;63132;52.268;5.192;2022-11-15T02:11:12;80.05;;;40.28;;
74626;SDS011;63132;52.268;5.192;2022-11-15T02:13:37;88.53;;;42.13;;
74626;SDS011;63132;52.268;5.192;2022-11-15T02:16:13;78.82;;;39.13;;
74626;SDS011;63132;52.268;5.192;2022-11-15T02:18:49;89.43;;;41.45;;
74626;SDS011;63132;52.268;5.192;2022-11-15T02:21:38;98.22;;;43.55;;
74626;SDS011;63132;52.268;5.192;2022-11-15T02:33:14;96.57;;;45.20;;
74626;SDS011;63132;52.268;5.192;2022-11-15T02:36:14;103.45;;;46.45;;
74626;SDS011;63132;52.268;5.192;2022-11-15T02:41:44;104.10;;;45.15;;
74626;SDS011;63132;52.268;5.192;2022-11-15T02:44:18;99.43;;;45.65;;
74626;SDS011;63132;52.268;5.192;2022-11-15T02:46:57;108.45;;;48.40;;
74626;SDS011;63132;52.268;5.192;2022-11-15T02:49:48;100.82;;;47.53;;
74626;SDS011;63132;52.268;5.192;2022-11-15T02:52:17;108.85;;;46.53;;
74626;SDS011;63132;52.268;5.192;2022-11-15T02:54:58;100.95;;;47.30;;
74626;SDS011;63132;52.268;5.192;2022-11-15T03:00:19;114.40;;;50.15;;
74626;SDS011;63132;52.268;5.192;2022-11-15T03:05:32;110.72;;;48.67;;
74626;SDS011;63132;52.268;5.192;2022-11-15T03:08:05;108.43;;;49.10;;
74626;SDS011;63132;52.268;5.192;2022-11-15T03:10:53;116.22;;;49.90;;
74626;SDS011;63132;52.268;5.192;2022-11-15T03:13:39;116.60;;;50.67;;
74626;SDS011;63132;52.268;5.192;2022-11-15T03:16:30;123.57;;;51.40;;
74626;SDS011;63132;52.268;5.192;2022-11-15T03:19:06;117.55;;;49.25;;
74626;SDS011;63132;52.268;5.192;2022-11-15T03:21:35;109.47;;;49.40;;
74626;SDS011;63132;52.268;5.192;2022-11-15T03:24:04;107.53;;;47.87;;
74626;SDS011;63132;52.268;5.192;2022-11-15T03:26:33;97.40;;;45.67;;
74626;SDS011;63132;52.268;5.192;2022-11-15T03:29:04;93.10;;;44.35;;
74626;SDS011;63132;52.268;5.192;2022-11-15T03:31:36;96.20;;;45.08;;
74626;SDS011;63132;52.268;5.192;2022-11-15T03:34:19;104.40;;;47.37;;
74626;SDS011;63132;52.268;5.192;2022-11-15T03:36:51;105.88;;;46.85;;
74626;SDS011;63132;52.268;5.192;2022-11-15T03:39:17;97.60;;;47.10;;
74626;SDS011;63132;52.268;5.192;2022-11-15T03:41:56;97.00;;;46.80;;
74626;SDS011;63132;52.268;5.192;2022-11-15T03:44:36;103.40;;;44.90;;
74626;SDS011;63132;52.268;5.192;2022-11-15T03:47:09;105.17;;;46.87;;
74626;SDS011;63132;52.268;5.192;2022-11-15T03:49:43;106.65;;;47.20;;
74626;SDS011;63132;52.268;5.192;2022-11-15T03:52:11;107.53;;;46.70;;
74626;SDS011;63132;52.268;5.192;2022-11-15T03:54:47;102.63;;;48.25;;
74626;SDS011;63132;52.268;5.192;2022-11-15T03:57:21;83.13;;;42.88;;
74626;SDS011;63132;52.268;5.192;2022-11-15T03:59:47;97.25;;;46.55;;
74626;SDS011;63132;52.268;5.192;2022-11-15T04:02:13;109.53;;;47.70;;
74626;SDS011;63132;52.268;5.192;2022-11-15T04:04:38;114.18;;;48.10;;
74626;SDS011;63132;52.268;5.192;2022-11-15T04:07:04;108.30;;;49.23;;
74626;SDS011;63132;52.268;5.192;2022-11-15T04:09:29;112.50;;;49.80;;
74626;SDS011;63132;52.268;5.192;2022-11-15T04:11:55;98.90;;;45.58;;
74626;SDS011;63132;52.268;5.192;2022-11-15T04:14:20;100.80;;;45.60;;
74626;SDS011;63132;52.268;5.192;2022-11-15T04:16:46;98.03;;;47.27;;
74626;SDS011;63132;52.268;5.192;2022-11-15T04:19:11;93.67;;;45.57;;
74626;SDS011;63132;52.268;5.192;2022-11-15T04:21:55;92.82;;;45.70;;
74626;SDS011;63132;52.268;5.192;2022-11-15T04:24:39;95.60;;;47.47;;
74626;SDS011;63132;52.268;5.192;2022-11-15T04:27:04;86.27;;;45.17;;
74626;SDS011;63132;52.268;5.192;2022-11-15T04:29:29;88.00;;;45.35;;
74626;SDS011;63132;52.268;5.192;2022-11-15T04:32:05;83.40;;;42.65;;
74626;SDS011;63132;52.268;5.192;2022-11-15T04:34:31;85.65;;;45.15;;
74626;SDS011;63132;52.268;5.192;2022-11-15T04:36:57;84.22;;;45.42;;
74626;SDS011;63132;52.268;5.192;2022-11-15T04:39:42;92.07;;;46.33;;
74626;SDS011;63132;52.268;5.192;2022-11-15T04:42:08;79.63;;;44.13;;
74626;SDS011;63132;52.268;5.192;2022-11-15T04:44:34;85.05;;;45.50;;
74626;SDS011;63132;52.268;5.192;2022-11-15T04:47:00;89.53;;;47.40;;
74626;SDS011;63132;52.268;5.192;2022-11-15T04:49:25;84.25;;;45.90;;
74626;SDS011;63132;52.268;5.192;2022-11-15T04:51:51;86.10;;;44.43;;
74626;SDS011;63132;52.268;5.192;2022-11-15T04:54:16;78.53;;;43.53;;
74626;SDS011;63132;52.268;5.192;2022-11-15T04:56:42;76.40;;;42.85;;
74626;SDS011;63132;52.268;5.192;2022-11-15T04:59:07;77.85;;;41.65;;
74626;SDS011;63132;52.268;5.192;2022-11-15T05:01:32;79.40;;;42.40;;
74626;SDS011;63132;52.268;5.192;2022-11-15T05:03:58;75.50;;;42.60;;
74626;SDS011;63132;52.268;5.192;2022-11-15T05:06:42;73.22;;;41.20;;
74626;SDS011;63132;52.268;5.192;2022-11-15T05:09:07;79.07;;;41.53;;
74626;SDS011;63132;52.268;5.192;2022-11-15T05:11:32;75.80;;;41.67;;
74626;SDS011;63132;52.268;5.192;2022-11-15T05:13:58;84.63;;;45.13;;
74626;SDS011;63132;52.268;5.192;2022-11-15T05:16:23;79.38;;;43.55;;
74626;SDS011;63132;52.268;5.192;2022-11-15T05:18:53;77.70;;;43.63;;
74626;SDS011;63132;52.268;5.192;2022-11-15T05:21:19;79.60;;;44.88;;
74626;SDS011;63132;52.268;5.192;2022-11-15T05:23:45;77.25;;;42.42;;
74626;SDS011;63132;52.268;5.192;2022-11-15T05:26:10;82.35;;;44.00;;
74626;SDS011;63132;52.268;5.192;2022-11-15T05:28:36;69.22;;;40.38;;
74626;SDS011;63132;52.268;5.192;2022-11-15T05:31:07;70.50;;;41.05;;
74626;SDS011;63132;52.268;5.192;2022-11-15T05:33:35;65.47;;;38.45;;
74626;SDS011;63132;52.268;5.192;2022-11-15T05:36:04;63.75;;;37.63;;
74626;SDS011;63132;52.268;5.192;2022-11-15T05:38:32;62.50;;;37.25;;
74626;SDS011;63132;52.268;5.192;2022-11-15T05:40:59;63.67;;;37.53;;
74626;SDS011;63132;52.268;5.192;2022-11-15T05:43:25;65.22;;;39.33;;
74626;SDS011;63132;52.268;5.192;2022-11-15T05:45:52;64.60;;;39.35;;
74626;SDS011;63132;52.268;5.192;2022-11-15T05:48:17;68.28;;;40.05;;
74626;SDS011;63132;52.268;5.192;2022-11-15T05:50:44;66.40;;;39.07;;
74626;SDS011;63132;52.268;5.192;2022-11-15T05:53:11;62.40;;;37.72;;
74626;SDS011;63132;52.268;5.192;2022-11-15T05:55:39;62.60;;;37.92;;
74626;SDS011;63132;52.268;5.192;2022-11-15T05:58:05;64.68;;;37.63;;
74626;SDS011;63132;52.268;5.192;2022-11-15T06:00:31;58.77;;;37.60;;
74626;SDS011;63132;52.268;5.192;2022-11-15T06:02:56;56.95;;;35.40;;
74626;SDS011;63132;52.268;5.192;2022-11-15T06:05:22;59.87;;;35.60;;
74626;SDS011;63132;52.268;5.192;2022-11-15T06:07:47;54.03;;;34.67;;
74626;SDS011;63132;52.268;5.192;2022-11-15T06:10:12;56.60;;;35.40;;
74626;SDS011;63132;52.268;5.192;2022-11-15T06:12:38;54.03;;;35.63;;
74626;SDS011;63132;52.268;5.192;2022-11-15T06:15:03;54.73;;;35.53;;
74626;SDS011;63132;52.268;5.192;2022-11-15T06:17:29;55.97;;;35.10;;
74626;SDS011;63132;52.268;5.192;2022-11-15T06:19:54;56.30;;;35.73;;
74626;SDS011;63132;52.268;5.192;2022-11-15T06:22:20;54.03;;;34.83;;
74626;SDS011;63132;52.268;5.192;2022-11-15T06:24:45;54.17;;;33.95;;
74626;SDS011;63132;52.268;5.192;2022-11-15T06:27:11;51.30;;;33.45;;
74626;SDS011;63132;52.268;5.192;2022-11-15T06:29:37;51.53;;;32.13;;
74626;SDS011;63132;52.268;5.192;2022-11-15T06:32:02;53.30;;;32.92;;
74626;SDS011;63132;52.268;5.192;2022-11-15T06:34:28;50.73;;;33.60;;
74626;SDS011;63132;52.268;5.192;2022-11-15T06:36:53;54.80;;;33.67;;
74626;SDS011;63132;52.268;5.192;2022-11-15T06:39:18;51.97;;;34.33;;
74626;SDS011;63132;52.268;5.192;2022-11-15T06:41:44;57.73;;;33.47;;
74626;SDS011;63132;52.268;5.192;2022-11-15T06:44:09;55.77;;;35.57;;
74626;SDS011;63132;52.268;5.192;2022-11-15T06:46:34;51.00;;;32.93;;
74626;SDS011;63132;52.268;5.192;2022-11-15T06:49:00;53.13;;;33.60;;
74626;SDS011;63132;52.268;5.192;2022-11-15T06:51:25;54.63;;;35.72;;
74626;SDS011;63132;52.268;5.192;2022-11-15T06:53:51;52.83;;;33.97;;
74626;SDS011;63132;52.268;5.192;2022-11-15T06:56:16;60.30;;;36.67;;
74626;SDS011;63132;52.268;5.192;2022-11-15T06:58:41;57.47;;;35.15;;
74626;SDS011;63132;52.268;5.192;2022-11-15T07:01:08;54.67;;;33.90;;
74626;SDS011;63132;52.268;5.192;2022-11-15T07:03:36;58.83;;;36.00;;
74626;SDS011;63132;52.268;5.192;2022-11-15T07:06:03;65.10;;;37.13;;
74626;SDS011;63132;52.268;5.192;2022-11-15T07:08:28;61.17;;;36.83;;
74626;SDS011;63132;52.268;5.192;2022-11-15T07:10:54;60.30;;;36.53;;
74626;SDS011;63132;52.268;5.192;2022-11-15T07:13:25;60.80;;;34.80;;
74626;SDS011;63132;52.268;5.192;2022-11-15T07:15:51;52.85;;;33.05;;
74626;SDS011;63132;52.268;5.192;2022-11-15T07:18:16;49.13;;;32.30;;
74626;SDS011;63132;52.268;5.192;2022-11-15T07:20:41;44.77;;;30.87;;
74626;SDS011;63132;52.268;5.192;2022-11-15T07:23:07;49.60;;;31.63;;
74626;SDS011;63132;52.268;5.192;2022-11-15T07:25:33;51.60;;;32.97;;
74626;SDS011;63132;52.268;5.192;2022-11-15T07:27:59;47.53;;;30.55;;
74626;SDS011;63132;52.268;5.192;2022-11-15T07:30:25;46.60;;;31.07;;
74626;SDS011;63132;52.268;5.192;2022-11-15T07:33:00;52.95;;;32.95;;
74626;SDS011;63132;52.268;5.192;2022-11-15T07:35:27;52.30;;;32.50;;
74626;SDS011;63132;52.268;5.192;2022-11-15T07:38:02;49.22;;;30.83;;
74626;SDS011;63132;52.268;5.192;2022-11-15T07:40:28;52.08;;;32.53;;
74626;SDS011;63132;52.268;5.192;2022-11-15T07:43:03;52.45;;;32.40;;
74626;SDS011;63132;52.268;5.192;2022-11-15T07:45:30;53.70;;;32.65;;
74626;SDS011;63132;52.268;5.192;2022-11-15T07:47:55;58.22;;;34.13;;
74626;SDS011;63132;52.268;5.192;2022-11-15T07:50:24;58.55;;;34.28;;
74626;SDS011;63132;52.268;5.192;2022-11-15T07:52:54;62.33;;;34.83;;
74626;SDS011;63132;52.268;5.192;2022-11-15T07:55:24;55.08;;;33.42;;
74626;SDS011;63132;52.268;5.192;2022-11-15T07:57:52;54.20;;;32.88;;
74626;SDS011;63132;52.268;5.192;2022-11-15T08:00:18;52.05;;;31.02;;
74626;SDS011;63132;52.268;5.192;2022-11-15T08:02:44;49.63;;;30.85;;
74626;SDS011;63132;52.268;5.192;2022-11-15T08:05:09;50.08;;;29.67;;
74626;SDS011;63132;52.268;5.192;2022-11-15T08:07:35;49.10;;;30.92;;
74626;SDS011;63132;52.268;5.192;2022-11-15T08:10:00;52.90;;;30.63;;
74626;SDS011;63132;52.268;5.192;2022-11-15T08:12:27;52.93;;;30.73;;
74626;SDS011;63132;52.268;5.192;2022-11-15T08:14:54;46.40;;;29.17;;
74626;SDS011;63132;52.268;5.192;2022-11-15T08:17:20;47.40;;;29.60;;
74626;SDS011;63132;52.268;5.192;2022-11-15T08:19:46;51.43;;;29.80;;
74626;SDS011;63132;52.268;5.192;2022-11-15T08:22:12;53.07;;;30.87;;
74626;SDS011;63132;52.268;5.192;2022-11-15T08:24:37;55.55;;;30.45;;
74626;SDS011;63132;52.268;5.192;2022-11-15T08:27:03;52.38;;;30.05;;
74626;SDS011;63132;52.268;5.192;2022-11-15T08:29:28;49.40;;;30.30;;
74626;SDS011;63132;52.268;5.192;2022-11-15T08:31:54;51.10;;;29.90;;
74626;SDS011;63132;52.268;5.192;2022-11-15T08:34:21;45.87;;;27.90;;
74626;SDS011;63132;52.268;5.192;2022-11-15T08:36:46;46.57;;;27.03;;
74626;SDS011;63132;52.268;5.192;2022-11-15T08:39:12;43.43;;;26.90;;
74626;SDS011;63132;52.268;5.192;2022-11-15T08:41:38;47.13;;;26.57;;
74626;SDS011;63132;52.268;5.192;2022-11-15T08:44:03;40.53;;;25.03;;
74626;SDS011;63132;52.268;5.192;2022-11-15T08:46:29;41.20;;;24.63;;
74626;SDS011;63132;52.268;5.192;2022-11-15T08:48:54;33.42;;;22.88;;
74626;SDS011;63132;52.268;5.192;2022-11-15T08:51:20;37.30;;;22.07;;
74626;SDS011;63132;52.268;5.192;2022-11-15T08:53:45;37.20;;;21.90;;
74626;SDS011;63132;52.268;5.192;2022-11-15T08:56:14;40.20;;;22.52;;
74626;SDS011;63132;52.268;5.192;2022-11-15T08:58:40;34.95;;;21.83;;
74626;SDS011;63132;52.268;5.192;2022-11-15T09:01:05;38.90;;;21.83;;
74626;SDS011;63132;52.268;5.192;2022-11-15T09:03:31;33.57;;;21.30;;
74626;SDS011;63132;52.268;5.192;2022-11-15T09:05:57;32.47;;;21.47;;
74626;SDS011;63132;52.268;5.192;2022-11-15T09:08:25;37.70;;;19.90;;
74626;SDS011;63132;52.268;5.192;2022-11-15T09:10:54;32.28;;;19.10;;
74626;SDS011;63132;52.268;5.192;2022-11-15T09:13:19;30.53;;;17.80;;
74626;SDS011;63132;52.268;5.192;2022-11-15T09:15:44;28.70;;;17.90;;
74626;SDS011;63132;52.268;5.192;2022-11-15T09:18:10;30.20;;;17.58;;
74626;SDS011;63132;52.268;5.192;2022-11-15T09:20:35;26.60;;;17.13;;
74626;SDS011;63132;52.268;5.192;2022-11-15T09:23:01;26.40;;;15.80;;
74626;SDS011;63132;52.268;5.192;2022-11-15T09:25:27;23.25;;;14.40;;
74626;SDS011;63132;52.268;5.192;2022-11-15T09:27:54;19.27;;;13.20;;
74626;SDS011;63132;52.268;5.192;2022-11-15T09:30:20;24.13;;;13.55;;
74626;SDS011;63132;52.268;5.192;2022-11-15T09:32:46;20.92;;;12.95;;
74626;SDS011;63132;52.268;5.192;2022-11-15T09:35:12;22.27;;;12.00;;
74626;SDS011;63132;52.268;5.192;2022-11-15T09:37:37;21.67;;;12.13;;
74626;SDS011;63132;52.268;5.192;2022-11-15T09:40:02;20.77;;;12.00;;
74626;SDS011;63132;52.268;5.192;2022-11-15T09:42:39;21.83;;;11.82;;
74626;SDS011;63132;52.268;5.192;2022-11-15T09:45:17;20.50;;;11.60;;
74626;SDS011;63132;52.268;5.192;2022-11-15T09:47:56;18.58;;;10.98;;
74626;SDS011;63132;52.268;5.192;2022-11-15T09:50:44;19.38;;;10.98;;
74626;SDS011;63132;52.268;5.192;2022-11-15T09:53:14;20.95;;;10.70;;
74626;SDS011;63132;52.268;5.192;2022-11-15T09:55:51;19.73;;;9.68;;
74626;SDS011;63132;52.268;5.192;2022-11-15T09:58:27;19.75;;;9.57;;
74626;SDS011;63132;52.268;5.192;2022-11-15T10:00:54;19.57;;;9.80;;
74626;SDS011;63132;52.268;5.192;2022-11-15T10:03:26;15.38;;;9.05;;
74626;SDS011;63132;52.268;5.192;2022-11-15T10:05:57;19.17;;;9.52;;
74626;SDS011;63132;52.268;5.192;2022-11-15T10:11:22;17.20;;;8.88;;
74626;SDS011;63132;52.268;5.192;2022-11-15T10:13:51;14.25;;;8.23;;
74626;SDS011;63132;52.268;5.192;2022-11-15T10:24:18;11.75;;;6.47;;
74626;SDS011;63132;52.268;5.192;2022-11-15T10:26:49;10.40;;;5.97;;
74626;SDS011;63132;52.268;5.192;2022-11-15T10:29:18;14.60;;;6.03;;
74626;SDS011;63132;52.268;5.192;2022-11-15T10:31:45;10.98;;;6.32;;
74626;SDS011;63132;52.268;5.192;2022-11-15T10:34:12;10.47;;;5.67;;
74626;SDS011;63132;52.268;5.192;2022-11-15T10:36:44;13.45;;;5.82;;
74626;SDS011;63132;52.268;5.192;2022-11-15T10:39:13;11.55;;;5.60;;
74626;SDS011;63132;52.268;5.192;2022-11-15T10:41:40;12.52;;;6.15;;
74626;SDS011;63132;52.268;5.192;2022-11-15T10:46:33;10.73;;;5.53;;
74626;SDS011;63132;52.268;5.192;2022-11-15T10:51:49;11.73;;;6.20;;
74626;SDS011;63132;52.268;5.192;2022-11-15T10:54:23;13.70;;;5.93;;
74626;SDS011;63132;52.268;5.192;2022-11-15T10:57:24;13.27;;;6.22;;
74626;SDS011;63132;52.268;5.192;2022-11-15T11:08:01;8.98;;;4.78;;
74626;SDS011;63132;52.268;5.192;2022-11-15T11:10:54;11.57;;;4.90;;
74626;SDS011;63132;52.268;5.192;2022-11-15T11:13:27;9.15;;;5.13;;
74626;SDS011;63132;52.268;5.192;2022-11-15T11:18:40;8.80;;;4.72;;
74626;SDS011;63132;52.268;5.192;2022-11-15T11:21:14;10.50;;;4.97;;
74626;SDS011;63132;52.268;5.192;2022-11-15T11:23:51;9.73;;;4.40;;
74626;SDS011;63132;52.268;5.192;2022-11-15T11:31:54;9.52;;;4.03;;
74626;SDS011;63132;52.268;5.192;2022-11-15T11:37:17;9.05;;;3.22;;
74626;SDS011;63132;52.268;5.192;2022-11-15T11:48:20;12.43;;;2.83;;
74626;SDS011;63132;52.268;5.192;2022-11-15T11:50:59;10.95;;;2.90;;
74626;SDS011;63132;52.268;5.192;2022-11-15T11:53:39;7.93;;;2.72;;
74626;SDS011;63132;52.268;5.192;2022-11-15T11:56:19;10.18;;;2.72;;
74626;SDS011;63132;52.268;5.192;2022-11-15T11:58:49;8.93;;;2.60;;
74626;SDS011;63132;52.268;5.192;2022-11-15T12:01:23;8.75;;;2.42;;
74626;SDS011;63132;52.268;5.192;2022-11-15T12:04:20;8.20;;;2.27;;
74626;SDS011;63132;52.268;5.192;2022-11-15T12:06:50;6.60;;;2.00;;
74626;SDS011;63132;52.268;5.192;2022-11-15T12:09:23;8.80;;;2.55;;
74626;SDS011;63132;52.268;5.192;2022-11-15T12:17:12;7.00;;;1.83;;
74626;SDS011;63132;52.268;5.192;2022-11-15T12:19:39;11.77;;;2.30;;
74626;SDS011;63132;52.268;5.192;2022-11-15T12:22:13;6.80;;;1.70;;
74626;SDS011;63132;52.268;5.192;2022-11-15T12:25:02;8.73;;;1.90;;
74626;SDS011;63132;52.268;5.192;2022-11-15T12:27:48;6.05;;;1.83;;
74626;SDS011;63132;52.268;5.192;2022-11-15T12:30:20;7.20;;;1.80;;
74626;SDS011;63132;52.268;5.192;2022-11-15T12:32:57;9.00;;;1.85;;
74626;SDS011;63132;52.268;5.192;2022-11-15T12:35:29;5.45;;;1.63;;
74626;SDS011;63132;52.268;5.192;2022-11-15T12:37:59;8.45;;;1.90;;
74626;SDS011;63132;52.268;5.192;2022-11-15T12:40:37;8.77;;;1.83;;
74626;SDS011;63132;52.268;5.192;2022-11-15T12:43:36;14.25;;;2.08;;
74626;SDS011;63132;52.268;5.192;2022-11-15T12:46:05;8.32;;;1.90;;
74626;SDS011;63132;52.268;5.192;2022-11-15T12:51:00;9.40;;;1.80;;
74626;SDS011;63132;52.268;5.192;2022-11-15T12:53:27;8.52;;;1.60;;
74626;SDS011;63132;52.268;5.192;2022-11-15T12:58:38;6.60;;;1.63;;
74626;SDS011;63132;52.268;5.192;2022-11-15T13:04:13;7.68;;;1.42;;
74626;SDS011;63132;52.268;5.192;2022-11-15T13:06:58;8.30;;;1.70;;
74626;SDS011;63132;52.268;5.192;2022-11-15T13:12:10;7.72;;;1.70;;
74626;SDS011;63132;52.268;5.192;2022-11-15T13:14:59;9.20;;;1.63;;
74626;SDS011;63132;52.268;5.192;2022-11-15T13:20:01;6.07;;;1.60;;
74626;SDS011;63132;52.268;5.192;2022-11-15T13:22:32;8.97;;;1.80;;
74626;SDS011;63132;52.268;5.192;2022-11-15T13:33:20;7.82;;;1.45;;
74626;SDS011;63132;52.268;5.192;2022-11-15T13:35:49;9.97;;;1.80;;
74626;SDS011;63132;52.268;5.192;2022-11-15T13:41:28;6.67;;;1.60;;
74626;SDS011;63132;52.268;5.192;2022-11-15T13:43:56;8.47;;;1.77;;
74626;SDS011;63132;52.268;5.192;2022-11-15T13:49:03;6.50;;;1.67;;
74626;SDS011;63132;52.268;5.192;2022-11-15T13:54:16;8.67;;;1.60;;
74626;SDS011;63132;52.268;5.192;2022-11-15T13:56:53;9.52;;;1.40;;
74626;SDS011;63132;52.268;5.192;2022-11-15T13:59:33;9.00;;;2.35;;
74626;SDS011;63132;52.268;5.192;2022-11-15T14:02:02;7.10;;;1.70;;
74626;SDS011;63132;52.268;5.192;2022-11-15T14:04:37;7.85;;;1.60;;
74626;SDS011;63132;52.268;5.192;2022-11-15T14:07:14;8.48;;;1.90;;
74626;SDS011;63132;52.268;5.192;2022-11-15T14:09:42;8.87;;;1.93;;
74626;SDS011;63132;52.268;5.192;2022-11-15T14:12:29;8.13;;;2.00;;
74626;SDS011;63132;52.268;5.192;2022-11-15T14:14:57;6.53;;;2.40;;
74626;SDS011;63132;52.268;5.192;2022-11-15T14:19:55;7.90;;;1.83;;
74626;SDS011;63132;52.268;5.192;2022-11-15T14:22:23;8.20;;;2.40;;
74626;SDS011;63132;52.268;5.192;2022-11-15T14:30:40;6.50;;;2.30;;
74626;SDS011;63132;52.268;5.192;2022-11-15T14:35:56;8.00;;;2.30;;
74626;SDS011;63132;52.268;5.192;2022-11-15T14:38:24;8.80;;;2.40;;
74626;SDS011;63132;52.268;5.192;2022-11-15T14:40:50;6.22;;;2.38;;
74626;SDS011;63132;52.268;5.192;2022-11-15T14:43:15;7.73;;;2.47;;
74626;SDS011;63132;52.268;5.192;2022-11-15T14:45:41;7.03;;;2.60;;
74626;SDS011;63132;52.268;5.192;2022-11-15T14:48:06;11.20;;;2.33;;
74626;SDS011;63132;52.268;5.192;2022-11-15T14:50:32;11.45;;;2.20;;
74626;SDS011;63132;52.268;5.192;2022-11-15T14:52:59;6.90;;;2.10;;
74626;SDS011;63132;52.268;5.192;2022-11-15T14:55:26;9.13;;;2.30;;
74626;SDS011;63132;52.268;5.192;2022-11-15T14:58:04;8.40;;;2.40;;
74626;SDS011;63132;52.268;5.192;2022-11-15T15:00:33;8.90;;;2.40;;
74626;SDS011;63132;52.268;5.192;2022-11-15T15:02:59;9.02;;;2.38;;
74626;SDS011;63132;52.268;5.192;2022-11-15T15:05:31;6.82;;;2.10;;
74626;SDS011;63132;52.268;5.192;2022-11-15T15:07:58;6.20;;;2.08;;
74626;SDS011;63132;52.268;5.192;2022-11-15T15:10:24;5.90;;;1.90;;
74626;SDS011;63132;52.268;5.192;2022-11-15T15:12:52;9.23;;;2.50;;
74626;SDS011;63132;52.268;5.192;2022-11-15T15:15:22;7.07;;;2.53;;
74626;SDS011;63132;52.268;5.192;2022-11-15T15:17:50;10.50;;;2.60;;
74626;SDS011;63132;52.268;5.192;2022-11-15T15:20:16;8.88;;;2.40;;
74626;SDS011;63132;52.268;5.192;2022-11-15T15:22:41;10.93;;;2.25;;
74626;SDS011;63132;52.268;5.192;2022-11-15T15:25:28;8.23;;;2.25;;
74626;SDS011;63132;52.268;5.192;2022-11-15T15:27:57;7.00;;;2.03;;
74626;SDS011;63132;52.268;5.192;2022-11-15T15:30:23;7.95;;;2.20;;
74626;SDS011;63132;52.268;5.192;2022-11-15T15:32:49;13.18;;;2.60;;
74626;SDS011;63132;52.268;5.192;2022-11-15T15:35:15;6.77;;;2.27;;
74626;SDS011;63132;52.268;5.192;2022-11-15T15:37:42;7.28;;;2.17;;
74626;SDS011;63132;52.268;5.192;2022-11-15T15:42:40;8.30;;;2.13;;
74626;SDS011;63132;52.268;5.192;2022-11-15T15:45:05;8.87;;;2.30;;
74626;SDS011;63132;52.268;5.192;2022-11-15T15:47:32;8.98;;;1.90;;
74626;SDS011;63132;52.268;5.192;2022-11-15T15:49:57;8.93;;;2.10;;
74626;SDS011;63132;52.268;5.192;2022-11-15T15:52:22;6.60;;;1.80;;
74626;SDS011;63132;52.268;5.192;2022-11-15T15:54:48;7.80;;;2.20;;
74626;SDS011;63132;52.268;5.192;2022-11-15T15:57:13;9.73;;;1.90;;
74626;SDS011;63132;52.268;5.192;2022-11-15T15:59:40;6.85;;;1.90;;
74626;SDS011;63132;52.268;5.192;2022-11-15T16:02:05;7.40;;;2.20;;
74626;SDS011;63132;52.268;5.192;2022-11-15T16:04:31;8.23;;;2.47;;
74626;SDS011;63132;52.268;5.192;2022-11-15T16:07:00;11.60;;;3.60;;
74626;SDS011;63132;52.268;5.192;2022-11-15T16:09:26;19.98;;;8.18;;
74626;SDS011;63132;52.268;5.192;2022-11-15T16:12:10;13.55;;;6.30;;
74626;SDS011;63132;52.268;5.192;2022-11-15T16:14:36;9.32;;;2.80;;
74626;SDS011;63132;52.268;5.192;2022-11-15T16:17:01;6.05;;;1.75;;
74626;SDS011;63132;52.268;5.192;2022-11-15T16:19:27;5.82;;;1.90;;
74626;SDS011;63132;52.268;5.192;2022-11-15T16:21:53;8.35;;;1.90;;
74626;SDS011;63132;52.268;5.192;2022-11-15T16:24:19;5.80;;;1.83;;
74626;SDS011;63132;52.268;5.192;2022-11-15T16:26:45;5.80;;;1.95;;
74626;SDS011;63132;52.268;5.192;2022-11-15T16:29:12;5.80;;;2.13;;
74626;SDS011;63132;52.268;5.192;2022-11-15T16:31:37;6.03;;;1.90;;
74626;SDS011;63132;52.268;5.192;2022-11-15T16:34:03;9.50;;;2.13;;
74626;SDS011;63132;52.268;5.192;2022-11-15T16:36:30;6.03;;;1.73;;